createdAt,value
2019-05-10T00:01:23.551Z,6.17
2019-05-10T00:04:16.011Z,6.37
2019-05-10T00:07:01.709Z,6.13
2019-05-10T00:09:35.995Z,5.50
2019-05-10T00:12:21.585Z,5.30
2019-05-10T00:15:27.804Z,5.07
2019-05-10T00:17:58.232Z,4.90
2019-05-10T00:20:27.593Z,5.10
2019-05-10T00:22:56.330Z,4.73
2019-05-10T00:25:25.720Z,4.13
2019-05-10T00:27:56.716Z,4.00
2019-05-10T00:30:25.689Z,3.80
2019-05-10T00:32:54.444Z,3.83
2019-05-10T00:35:23.484Z,3.80
2019-05-10T00:37:52.288Z,3.60
2019-05-10T00:40:21.087Z,3.57
2019-05-10T00:42:50.182Z,2.97
2019-05-10T00:45:23.527Z,3.13
2019-05-10T00:47:54.187Z,2.67
2019-05-10T00:50:25.276Z,3.00
2019-05-10T00:52:54.216Z,2.70
2019-05-10T00:55:32.018Z,2.57
2019-05-10T00:58:02.116Z,2.40
2019-05-10T01:00:30.935Z,2.43
2019-05-10T01:02:59.851Z,2.27
2019-05-10T01:05:28.408Z,2.50
2019-05-10T01:07:59.204Z,3.20
2019-05-10T01:10:27.378Z,2.80
2019-05-10T01:12:56.189Z,2.30
2019-05-10T01:15:28.091Z,2.80
2019-05-10T01:18:05.900Z,2.70
2019-05-10T01:20:34.680Z,2.30
2019-05-10T01:23:03.248Z,2.27
2019-05-10T01:25:35.659Z,2.20
2019-05-10T01:28:13.496Z,2.40
2019-05-10T01:30:42.835Z,2.10
2019-05-10T01:33:11.420Z,2.13
2019-05-10T01:35:40.395Z,1.97
2019-05-10T01:38:10.335Z,2.30
2019-05-10T01:40:39.130Z,2.30
2019-05-10T01:43:10.170Z,2.23
2019-05-10T01:45:39.089Z,2.33
2019-05-10T01:48:08.006Z,2.20
2019-05-10T01:50:37.468Z,2.37
2019-05-10T01:53:09.008Z,2.30
2019-05-10T01:55:51.342Z,2.20
2019-05-10T01:58:11.604Z,2.67
2019-05-10T02:00:40.852Z,3.00
2019-05-10T02:03:09.713Z,3.10
2019-05-10T02:05:41.886Z,2.50
2019-05-10T02:08:13.700Z,2.90
2019-05-10T02:10:44.374Z,2.40
2019-05-10T02:13:26.652Z,2.13
2019-05-10T02:16:32.637Z,2.73
2019-05-10T02:21:53.423Z,2.70
2019-05-10T02:24:24.513Z,2.23
2019-05-10T02:26:58.361Z,2.50
2019-05-10T02:29:36.454Z,2.33
2019-05-10T02:32:07.616Z,2.53
2019-05-10T02:34:36.812Z,2.20
2019-05-10T02:37:15.157Z,2.17
2019-05-10T02:39:47.253Z,2.20
2019-05-10T02:42:16.222Z,2.90
2019-05-10T02:44:47.829Z,2.23
2019-05-10T02:47:19.283Z,2.10
2019-05-10T02:49:48.543Z,2.43
2019-05-10T02:52:19.646Z,2.03
2019-05-10T02:54:58.607Z,2.00
2019-05-10T02:57:37.164Z,2.10
2019-05-10T03:00:06.216Z,2.07
2019-05-10T03:02:35.551Z,1.77
2019-05-10T03:05:07.287Z,2.10
2019-05-10T03:07:36.965Z,2.27
2019-05-10T03:10:06.443Z,2.20
2019-05-10T03:12:41.768Z,1.90
2019-05-10T03:15:16.854Z,1.90
2019-05-10T03:17:50.727Z,1.90
2019-05-10T03:20:20.083Z,2.13
2019-05-10T03:22:50.151Z,2.03
2019-05-10T03:28:31.305Z,2.37
2019-05-10T03:31:11.457Z,2.03
2019-05-10T03:33:43.656Z,1.80
2019-05-10T03:36:15.933Z,1.63
2019-05-10T03:41:45.077Z,2.00
2019-05-10T03:44:34.338Z,1.70
2019-05-10T03:50:18.313Z,1.67
2019-05-10T03:53:01.745Z,2.27
2019-05-10T03:55:36.850Z,1.80
2019-05-10T03:59:06.656Z,2.10
2019-05-10T04:02:30.813Z,2.10
2019-05-10T04:11:52.701Z,2.93
2019-05-10T04:14:45.473Z,2.20
2019-05-10T04:17:59.092Z,2.10
2019-05-10T04:20:58.990Z,2.33
2019-05-10T04:24:05.813Z,2.13
2019-05-10T04:27:32.958Z,1.80
2019-05-10T04:37:00.855Z,2.13
2019-05-10T04:39:46.309Z,2.30
2019-05-10T04:42:24.756Z,2.20
2019-05-10T04:45:10.377Z,2.23
2019-05-10T04:51:13.249Z,2.53
2019-05-10T04:54:39.195Z,2.07
2019-05-10T04:57:12.783Z,2.33
2019-05-10T05:00:31.195Z,2.30
2019-05-10T05:03:52.630Z,2.73
2019-05-10T05:07:05.894Z,2.30
2019-05-10T05:16:08.336Z,3.13
2019-05-10T05:22:16.289Z,2.60
2019-05-10T05:25:09.384Z,2.90
2019-05-10T05:27:38.685Z,2.27
2019-05-10T05:36:49.368Z,2.83
2019-05-10T05:39:27.655Z,2.87
2019-05-10T05:41:57.040Z,3.30
2019-05-10T05:44:28.875Z,2.30
2019-05-10T05:46:58.334Z,2.60
2019-05-10T05:49:27.896Z,2.97
2019-05-10T05:52:08.146Z,2.60
2019-05-10T05:58:26.656Z,2.53
2019-05-10T06:01:28.856Z,2.40
2019-05-10T06:04:06.551Z,2.60
2019-05-10T06:07:40.929Z,2.60
2019-05-10T06:10:10.016Z,2.37
2019-05-10T06:12:57.522Z,2.03
2019-05-10T06:15:32.526Z,2.87
2019-05-10T06:18:09.380Z,2.37
2019-05-10T06:20:47.623Z,2.30
2019-05-10T06:23:29.044Z,2.47
2019-05-10T06:25:57.607Z,2.33
2019-05-10T06:28:57.088Z,2.37
2019-05-10T06:31:04.948Z,2.10
2019-05-10T06:33:33.880Z,2.33
2019-05-10T06:36:03.082Z,2.30
2019-05-10T06:38:55.457Z,2.47
2019-05-10T06:41:25.961Z,2.10
2019-05-10T06:43:54.940Z,2.00
2019-05-10T06:46:29.238Z,2.43
2019-05-10T06:48:54.265Z,1.90
2019-05-10T06:51:24.790Z,1.87
2019-05-10T06:53:56.712Z,2.27
2019-05-10T06:56:25.418Z,2.47
2019-05-10T06:58:54.984Z,2.43
2019-05-10T07:01:24.126Z,1.80
2019-05-10T07:03:52.748Z,1.80
2019-05-10T07:06:21.327Z,1.40
2019-05-10T07:08:51.592Z,1.50
2019-05-10T07:11:24.046Z,1.63
2019-05-10T07:14:08.701Z,1.70
2019-05-10T07:16:42.102Z,1.80
2019-05-10T07:19:11.882Z,1.70
2019-05-10T07:21:44.294Z,1.73
2019-05-10T07:24:12.204Z,1.50
2019-05-10T07:26:41.193Z,1.73
2019-05-10T07:29:29.518Z,1.53
2019-05-10T07:31:50.037Z,1.73
2019-05-10T07:34:22.089Z,1.80
2019-05-10T07:36:57.344Z,1.73
2019-05-10T07:39:29.138Z,1.40
2019-05-10T07:42:00.438Z,1.77
2019-05-10T07:44:46.667Z,1.77
2019-05-10T07:47:16.807Z,2.10
2019-05-10T07:49:45.954Z,2.17
2019-05-10T07:52:15.254Z,1.80
2019-05-10T07:54:45.911Z,2.17
2019-05-10T07:57:26.806Z,2.53
2019-05-10T07:59:57.746Z,2.00
2019-05-10T08:02:33.711Z,1.93
2019-05-10T08:05:05.024Z,1.53
2019-05-10T08:08:03.471Z,1.83
2019-05-10T08:10:32.592Z,2.00
2019-05-10T08:13:03.689Z,1.80
2019-05-10T08:15:34.989Z,2.10
2019-05-10T08:18:09.826Z,2.40
2019-05-10T08:20:53.470Z,1.83
2019-05-10T08:23:26.410Z,1.87
2019-05-10T08:26:04.596Z,1.60
2019-05-10T08:28:42.253Z,1.90
2019-05-10T08:31:12.346Z,1.70
2019-05-10T08:33:52.806Z,1.87
2019-05-10T08:36:26.174Z,1.90
2019-05-10T08:39:10.968Z,2.27
2019-05-10T08:42:01.362Z,1.90
2019-05-10T08:44:26.571Z,1.90
2019-05-10T08:47:07.738Z,1.63
2019-05-10T08:50:06.179Z,1.60
2019-05-10T08:52:33.971Z,1.93
2019-05-10T08:55:03.033Z,1.50
2019-05-10T08:57:34.909Z,1.63
2019-05-10T09:00:08.993Z,1.87
2019-05-10T09:02:42.750Z,1.37
2019-05-10T09:05:13.759Z,1.50
2019-05-10T09:07:45.318Z,1.80
2019-05-10T09:10:19.064Z,1.50
2019-05-10T09:12:57.290Z,1.50
2019-05-10T09:15:22.349Z,1.20
2019-05-10T09:17:58.345Z,1.20
2019-05-10T09:20:26.470Z,1.33
2019-05-10T09:22:57.031Z,1.40
2019-05-10T09:25:29.534Z,1.33
2019-05-10T09:27:56.721Z,1.30
2019-05-10T09:30:36.748Z,1.70
2019-05-10T09:33:14.339Z,1.20
2019-05-10T09:35:51.485Z,1.20
2019-05-10T09:38:28.543Z,1.10
2019-05-10T09:41:02.676Z,1.43
2019-05-10T09:43:32.893Z,1.53
2019-05-10T09:46:11.505Z,1.30
2019-05-10T09:48:44.664Z,1.63
2019-05-10T09:51:19.018Z,1.30
2019-05-10T09:53:48.510Z,1.40
2019-05-10T09:56:18.614Z,1.20
2019-05-10T09:58:48.351Z,1.33
2019-05-10T10:01:21.451Z,1.30
2019-05-10T10:03:50.191Z,1.27
2019-05-10T10:06:19.005Z,1.47
2019-05-10T10:08:51.222Z,1.53
2019-05-10T10:11:29.235Z,1.63
2019-05-10T10:13:59.273Z,1.40
2019-05-10T10:16:28.199Z,1.30
2019-05-10T10:18:56.735Z,2.13
2019-05-10T10:21:35.100Z,1.20
2019-05-10T10:24:00.389Z,1.37
2019-05-10T10:26:34.467Z,1.40
2019-05-10T10:29:09.009Z,1.10
2019-05-10T10:31:51.175Z,1.00
2019-05-10T10:34:18.068Z,1.13
2019-05-10T10:36:49.199Z,1.80
2019-05-10T10:39:22.969Z,1.17
2019-05-10T10:41:52.162Z,0.80
2019-05-10T10:44:21.209Z,1.10
2019-05-10T10:46:50.507Z,1.13
2019-05-10T10:49:23.152Z,1.20
2019-05-10T10:51:52.260Z,1.40
2019-05-10T10:54:22.427Z,1.20
2019-05-10T10:56:52.393Z,1.07
2019-05-10T10:59:23.487Z,1.30
2019-05-10T11:02:25.279Z,1.10
2019-05-10T11:04:26.038Z,1.13
2019-05-10T11:07:09.388Z,1.10
2019-05-10T11:09:31.221Z,0.80
2019-05-10T11:12:00.945Z,1.00
2019-05-10T11:14:40.089Z,1.10
2019-05-10T11:17:03.296Z,1.60
2019-05-10T11:19:31.905Z,1.60
2019-05-10T11:22:02.254Z,1.10
2019-05-10T11:24:31.187Z,1.20
2019-05-10T11:27:01.092Z,1.17
2019-05-10T11:29:35.840Z,1.30
2019-05-10T11:32:15.283Z,1.57
2019-05-10T11:34:38.838Z,0.90
2019-05-10T11:37:06.957Z,1.10
2019-05-10T11:39:41.942Z,1.00
2019-05-10T11:42:07.348Z,1.10
2019-05-10T11:44:41.547Z,1.37
2019-05-10T11:47:22.891Z,1.33
2019-05-10T11:49:43.299Z,1.10
2019-05-10T11:52:13.257Z,1.17
2019-05-10T11:54:41.944Z,1.13
2019-05-10T11:59:43.660Z,1.30
2019-05-10T12:02:33.779Z,1.20
2019-05-10T12:04:43.831Z,1.33
2019-05-10T12:07:13.006Z,1.03
2019-05-10T12:09:42.521Z,1.07
2019-05-10T12:12:12.253Z,1.17
2019-05-10T12:14:43.640Z,1.67
2019-05-10T12:17:15.848Z,1.60
2019-05-10T12:19:50.480Z,1.30
2019-05-10T12:22:17.337Z,1.23
2019-05-10T12:25:11.405Z,1.30
2019-05-10T12:26:18.917Z,1.20
2019-05-10T12:27:28.549Z,1.07
2019-05-10T12:29:55.556Z,1.20
2019-05-10T12:32:21.321Z,1.40
2019-05-10T12:34:52.037Z,1.57
2019-05-10T12:37:20.247Z,1.50
2019-05-10T12:39:53.208Z,1.33
2019-05-10T12:42:23.678Z,2.00
2019-05-10T12:44:55.450Z,1.20
2019-05-10T12:47:21.876Z,1.13
2019-05-10T12:49:53.948Z,1.13
2019-05-10T12:52:43.203Z,1.30
2019-05-10T12:55:13.169Z,1.20
2019-05-10T12:57:43.685Z,1.13
2019-05-10T13:00:13.596Z,1.17
2019-05-10T13:02:51.316Z,0.87
2019-05-10T13:05:15.978Z,1.00
2019-05-10T13:07:46.798Z,1.10
2019-05-10T13:10:15.545Z,1.60
2019-05-10T13:12:47.671Z,1.20
2019-05-10T13:15:15.775Z,1.00
2019-05-10T13:17:50.181Z,1.30
2019-05-10T13:20:14.411Z,1.50
2019-05-10T13:22:42.836Z,1.30
2019-05-10T13:25:11.372Z,1.20
2019-05-10T13:27:39.935Z,1.20
2019-05-10T13:30:13.142Z,1.20
2019-05-10T13:32:43.558Z,1.30
2019-05-10T13:35:12.228Z,1.17
2019-05-10T13:37:40.754Z,1.20
2019-05-10T13:40:09.300Z,1.20
2019-05-10T13:42:43.148Z,1.30
2019-05-10T13:45:09.533Z,1.27
2019-05-10T13:47:38.400Z,1.10
2019-05-10T13:50:07.248Z,1.30
2019-05-10T13:57:06.448Z,1.00
2019-05-10T14:23:34.961Z,1.10
2019-05-10T14:34:14.092Z,1.10
2019-05-10T15:05:18.106Z,1.23
2019-05-10T15:07:58.141Z,1.17
2019-05-10T15:10:27.196Z,1.00
2019-05-10T15:13:04.058Z,1.50
2019-05-10T15:15:37.328Z,1.40
2019-05-10T15:18:10.907Z,1.43
2019-05-10T15:20:39.490Z,1.23
2019-05-10T15:23:08.154Z,1.43
2019-05-10T15:25:36.716Z,1.70
2019-05-10T15:28:05.308Z,2.03
2019-05-10T15:30:39.311Z,1.27
2019-05-10T15:33:07.060Z,1.60
2019-05-10T15:36:16.722Z,1.13
2019-05-10T15:38:30.618Z,1.40
2019-05-10T15:41:04.541Z,1.30
2019-05-10T15:43:35.355Z,1.43
2019-05-10T15:46:08.109Z,1.60
2019-05-10T15:48:41.706Z,1.50
2019-05-10T15:51:11.121Z,1.90
2019-05-10T15:53:42.137Z,1.60
2019-05-10T15:56:18.959Z,1.60
2019-05-10T16:02:00.697Z,1.50
2019-05-10T16:04:25.080Z,1.87
2019-05-10T16:07:28.787Z,1.67
2019-05-10T16:09:57.222Z,2.73
2019-05-10T16:12:25.674Z,4.20
2019-05-10T16:14:54.300Z,5.77
2019-05-10T16:17:23.998Z,5.20
2019-05-10T16:19:59.657Z,6.13
2019-05-10T16:22:29.743Z,4.07
2019-05-10T16:24:52.973Z,6.57
2019-05-10T16:27:21.379Z,3.10
2019-05-10T16:29:49.751Z,4.87
2019-05-10T16:32:18.228Z,5.63
2019-05-10T16:34:46.668Z,7.70
2019-05-10T16:37:15.256Z,5.53
2019-05-10T16:39:43.692Z,10.30
2019-05-10T16:42:13.604Z,3.87
2019-05-10T16:44:42.325Z,3.50
2019-05-10T16:47:10.725Z,2.63
2019-05-10T16:49:39.123Z,2.77
2019-05-10T16:52:07.658Z,2.20
2019-05-10T16:54:36.122Z,2.37
2019-05-10T16:57:04.451Z,2.93
2019-05-10T16:59:35.193Z,2.70
2019-05-10T17:02:06.253Z,2.00
2019-05-10T17:04:37.543Z,1.97
2019-05-10T17:07:03.112Z,1.80
2019-05-10T17:09:31.450Z,2.67
2019-05-10T17:11:59.867Z,2.20
2019-05-10T17:14:28.306Z,2.23
2019-05-10T17:16:58.864Z,1.60
2019-05-10T17:19:27.992Z,1.90
2019-05-10T17:22:01.331Z,2.20
2019-05-10T17:24:29.678Z,1.80
2019-05-10T17:26:58.164Z,2.00
2019-05-10T17:29:26.845Z,1.90
2019-05-10T17:31:55.263Z,1.93
2019-05-10T17:34:29.334Z,1.80
2019-05-10T17:36:57.980Z,1.60
2019-05-10T17:39:26.048Z,1.70
2019-05-10T17:41:57.696Z,1.97
2019-05-10T17:44:24.848Z,1.97
2019-05-10T17:46:55.573Z,2.23
2019-05-10T17:49:23.748Z,1.90
2019-05-10T17:51:52.293Z,1.80
2019-05-10T17:54:28.009Z,1.97
2019-05-10T17:56:56.593Z,1.80
2019-05-10T17:59:27.852Z,1.80
2019-05-10T18:01:56.766Z,1.70
2019-05-10T18:04:40.864Z,1.77
2019-05-10T18:11:06.350Z,1.67
2019-05-10T18:13:35.616Z,2.10
2019-05-10T18:16:09.385Z,2.00
2019-05-10T18:18:46.427Z,2.17
2019-05-10T18:21:06.556Z,1.70
2019-05-10T18:23:35.131Z,2.17
2019-05-10T18:26:03.800Z,2.03
2019-05-10T18:28:32.321Z,1.73
2019-05-10T18:31:00.868Z,2.10
2019-05-10T18:33:29.263Z,2.47
2019-05-10T18:35:57.710Z,2.00
2019-05-10T18:38:30.819Z,2.10
2019-05-10T18:40:56.367Z,2.63
2019-05-10T18:43:24.789Z,2.23
2019-05-10T18:45:53.208Z,2.10
2019-05-10T18:48:21.794Z,2.40
2019-05-10T18:50:50.207Z,1.80
2019-05-10T18:53:18.717Z,2.50
2019-05-10T18:55:47.268Z,3.07
2019-05-10T18:58:15.954Z,3.13
2019-05-10T19:00:44.861Z,2.03
2019-05-10T19:03:13.588Z,2.67
2019-05-10T19:05:42.251Z,2.27
2019-05-10T19:08:13.742Z,2.13
2019-05-10T19:10:42.363Z,2.00
2019-05-10T19:13:11.421Z,2.33
2019-05-10T19:15:40.434Z,2.63
2019-05-10T19:18:09.158Z,2.43
2019-05-10T19:20:38.027Z,2.67
2019-05-10T19:23:13.132Z,2.53
2019-05-10T19:25:39.364Z,2.10
2019-05-10T19:28:08.157Z,3.57
2019-05-10T19:30:36.800Z,2.90
2019-05-10T19:33:12.555Z,2.77
2019-05-10T19:35:47.248Z,2.80
2019-05-10T19:38:17.096Z,2.80
2019-05-10T19:40:49.426Z,2.77
2019-05-10T19:43:21.598Z,3.70
2019-05-10T19:47:32.264Z,3.33
2019-05-10T19:48:19.052Z,3.67
2019-05-10T19:50:47.795Z,3.73
2019-05-10T19:53:16.397Z,3.70
2019-05-10T19:55:44.800Z,3.27
2019-05-10T19:58:13.339Z,3.27
2019-05-10T20:00:42.117Z,2.60
2019-05-10T20:03:12.021Z,3.10
2019-05-10T20:05:40.715Z,3.40
2019-05-10T20:08:12.353Z,2.90
2019-05-10T20:10:41.072Z,3.00
2019-05-10T20:13:13.278Z,3.00
2019-05-10T20:15:41.784Z,3.90
2019-05-10T20:18:16.151Z,3.87
2019-05-10T20:20:44.854Z,4.47
2019-05-10T20:23:13.398Z,3.40
2019-05-10T20:25:43.675Z,3.77
2019-05-10T20:28:12.470Z,3.27
2019-05-10T20:30:40.975Z,3.73
2019-05-10T20:33:09.842Z,4.43
2019-05-10T20:35:47.517Z,4.70
2019-05-10T20:38:18.527Z,4.23
2019-05-10T20:40:55.947Z,3.93
2019-05-10T20:43:24.691Z,3.57
2019-05-10T20:45:53.173Z,5.00
2019-05-10T20:48:26.343Z,3.73
2019-05-10T20:50:55.138Z,4.03
2019-05-10T20:53:24.124Z,3.83
2019-05-10T20:55:52.798Z,3.87
2019-05-10T20:58:21.552Z,3.87
2019-05-10T21:00:50.316Z,4.10
2019-05-10T21:03:19.930Z,4.50
2019-05-10T21:05:48.510Z,3.57
2019-05-10T21:11:32.791Z,4.13
2019-05-10T21:14:33.424Z,5.43
2019-05-10T21:17:07.268Z,3.60
2019-05-10T21:19:44.768Z,3.90
2019-05-10T21:22:16.508Z,4.30
2019-05-10T21:25:00.420Z,3.60
2019-05-10T21:28:08.232Z,4.43
2019-05-10T21:30:54.942Z,3.80
2019-05-10T21:33:25.581Z,4.00
2019-05-10T21:35:57.409Z,5.10
2019-05-10T21:38:33.365Z,3.93
2019-05-10T21:41:04.694Z,4.30
2019-05-10T21:43:40.430Z,4.50
2019-05-10T21:46:15.154Z,3.90
2019-05-10T21:48:45.157Z,4.27
2019-05-10T21:51:13.672Z,3.93
2019-05-10T21:53:45.798Z,4.47
2019-05-10T21:56:14.437Z,4.47
2019-05-10T21:58:43.126Z,4.33
2019-05-10T22:01:12.246Z,3.70
2019-05-10T22:03:40.974Z,4.27
2019-05-10T22:06:11.163Z,4.10
2019-05-10T22:08:48.910Z,4.10
2019-05-10T22:11:10.327Z,4.03
2019-05-10T22:13:38.875Z,3.93
2019-05-10T22:16:07.509Z,4.13
2019-05-10T22:18:38.909Z,3.80
2019-05-10T22:21:07.424Z,4.23
2019-05-10T22:23:35.909Z,3.43
2019-05-10T22:26:05.317Z,3.43
2019-05-10T22:28:41.680Z,3.53
2019-05-10T22:31:13.947Z,4.90
2019-05-10T22:33:46.046Z,6.87
2019-05-10T22:36:14.521Z,5.90
2019-05-10T22:38:43.829Z,5.63
2019-05-10T22:41:48.045Z,5.00
2019-05-10T22:44:34.108Z,4.63
2019-05-10T22:47:16.554Z,3.90
2019-05-10T22:50:03.353Z,4.20
2019-05-10T23:25:59.544Z,4.00
2019-05-10T23:29:21.269Z,4.20
2019-05-10T23:35:37.363Z,3.87
2019-05-10T23:38:39.252Z,4.13
2019-05-10T23:41:48.082Z,3.90
2019-05-10T23:47:22.934Z,3.60
2019-05-10T23:50:04.556Z,3.83
2019-05-10T23:55:48.974Z,3.90
2019-05-10T23:58:59.375Z,3.83
